Time;durP1;ratioP1;P1;durP2;ratioP2;P2;SDS_P1;SDS_P2;PMS_P1;PMS_P2;Temp;Humidity;BMP_temperature;BMP_pressure;BME280_temperature;BME280_humidity;BME280_pressure;Samples;Min_cycle;Max_cycle;Signal;HPM_P1;HPM_P2
2022/03/31 00:00:14;;;;;;;2.65;1.50;;;14.40;59.30;;;;;;5011950;28;20471;-70
2022/03/31 00:02:41;;;;;;;1.40;1.00;;;14.20;60.50;;;;;;5013288;28;20125;-69
2022/03/31 00:05:08;;;;;;;3.35;1.40;;;14.40;60.60;;;;;;5013055;28;20045;-70
2022/03/31 00:07:35;;;;;;;2.83;1.60;;;14.20;60.40;;;;;;5011892;28;20108;-70
2022/03/31 00:10:02;;;;;;;3.20;1.60;;;14.20;60.50;;;;;;5011825;28;20054;-70
2022/03/31 00:12:29;;;;;;;2.38;1.40;;;14.10;56.60;;;;;;5011525;28;20058;-70
2022/03/31 00:14:56;;;;;;;2.05;1.40;;;14.30;60.20;;;;;;5012267;28;20156;-70
2022/03/31 00:17:24;;;;;;;2.70;1.60;;;14.20;52.70;;;;;;5011834;28;20513;-69
2022/03/31 00:19:51;;;;;;;2.55;1.52;;;;;;;;;;5012449;28;20096;-70
2022/03/31 00:32:34;;;;;;;2.15;1.30;;;14.10;60.40;;;;;;5011453;28;20042;-69
2022/03/31 00:35:01;;;;;;;2.33;1.52;;;;;;;;;;5012362;28;20137;-70
2022/03/31 00:37:41;;;;;;;2.10;1.33;;;14.10;60.30;;;;;;5012630;28;20491;-69
2022/03/31 00:40:09;;;;;;;2.42;1.40;;;;;;;;;;5012391;28;20100;-68
2022/03/31 00:42:40;;;;;;;2.47;1.58;;;14.00;60.20;;;;;;5012653;28;20050;-69
2022/03/31 00:45:12;;;;;;;2.38;1.27;;;14.00;60.50;;;;;;5011020;28;20092;-69
2022/03/31 00:47:40;;;;;;;3.47;1.55;;;14.20;60.30;;;;;;5013521;28;20129;-69
2022/03/31 00:50:08;;;;;;;2.28;1.40;;;14.20;60.60;;;;;;5012523;28;20609;-68
2022/03/31 00:52:35;;;;;;;2.97;1.25;;;14.10;60.60;;;;;;5012584;28;20073;-69
2022/03/31 00:55:02;;;;;;;1.98;1.20;;;;;;;;;;5011165;28;20053;-70
2022/03/31 00:57:29;;;;;;;2.40;1.27;;;14.40;60.70;;;;;;5011187;28;20112;-69
2022/03/31 00:59:56;;;;;;;2.20;1.20;;;14.10;53.90;;;;;;5011039;28;20070;-69
2022/03/31 01:02:23;;;;;;;2.17;1.55;;;;;;;;;;5013268;28;20045;-69
2022/03/31 01:04:52;;;;;;;1.63;1.23;;;14.10;55.20;;;;;;5011003;28;20065;-69
2022/03/31 01:07:19;;;;;;;1.50;1.15;;;;;;;;;;5012154;28;20493;-69
2022/03/31 01:09:46;;;;;;;2.13;1.15;;;14.30;60.40;;;;;;5011941;28;20483;-69
2022/03/31 01:12:12;;;;;;;2.47;1.40;;;14.20;56.10;;;;;;5011691;28;20610;-69
2022/03/31 01:14:39;;;;;;;2.47;1.33;;;14.00;60.40;;;;;;5011060;28;20061;-69
2022/03/31 01:17:06;;;;;;;2.63;1.20;;;14.30;60.40;;;;;;5011866;28;20054;-69
2022/03/31 01:19:33;;;;;;;3.00;1.30;;;14.10;60.40;;;;;;5010732;28;20060;-69
2022/03/31 01:22:01;;;;;;;2.00;1.27;;;14.30;60.60;;;;;;5012005;28;20060;-69
2022/03/31 01:24:30;;;;;;;2.05;1.50;;;14.10;60.20;;;;;;5012194;28;20049;-69
2022/03/31 01:26:57;;;;;;;1.73;1.30;;;;;;;;;;5023592;28;20120;-70
2022/03/31 01:29:27;;;;;;;3.22;1.20;;;14.30;60.50;;;;;;5036980;28;20049;-69
2022/03/31 01:31:54;;;;;;;1.52;1.10;;;14.10;60.40;;;;;;5036689;28;20063;-69
2022/03/31 01:34:21;;;;;;;1.88;1.38;;;13.80;55.20;;;;;;5038555;28;20080;-69
2022/03/31 01:36:48;;;;;;;2.47;1.00;;;14.20;60.40;;;;;;5038165;28;20054;-69
2022/03/31 01:39:15;;;;;;;1.75;1.20;;;13.90;56.10;;;;;;5037064;28;20053;-69
2022/03/31 01:41:44;;;;;;;2.08;1.13;;;14.30;60.20;;;;;;5034019;28;20515;-69
2022/03/31 01:44:11;;;;;;;1.80;1.20;;;;;;;;;;5018284;28;20577;-69
2022/03/31 01:46:38;;;;;;;1.30;1.00;;;14.30;60.10;;;;;;5018142;28;20489;-69
2022/03/31 01:49:05;;;;;;;1.80;1.10;;;;;;;;;;5017060;28;20100;-70
2022/03/31 01:51:34;;;;;;;2.63;1.20;;;14.30;60.00;;;;;;5018026;28;20041;-69
2022/03/31 01:54:00;;;;;;;1.80;1.10;;;14.30;60.40;;;;;;5017067;28;20447;-69
2022/03/31 01:56:28;;;;;;;1.60;1.10;;;;;;;;;;5018131;28;20053;-70
2022/03/31 01:58:56;;;;;;;2.33;1.08;;;14.10;60.00;;;;;;5029713;28;20049;-69
2022/03/31 02:01:23;;;;;;;1.65;1.20;;;14.30;60.10;;;;;;5036509;28;20057;-69
2022/03/31 02:03:49;;;;;;;1.70;1.10;;;14.30;60.00;;;;;;5037939;28;20127;-70
2022/03/31 02:06:17;;;;;;;1.13;1.00;;;;;;;;;;5037880;28;20049;-69
2022/03/31 02:08:45;;;;;;;1.55;1.10;;;;;;;;;;5036655;28;20104;-70
2022/03/31 02:11:12;;;;;;;1.58;1.10;;;14.30;60.10;;;;;;5036622;28;20084;-69
2022/03/31 02:13:39;;;;;;;1.40;1.20;;;14.30;59.90;;;;;;5035173;28;20080;-68
2022/03/31 02:16:08;;;;;;;2.50;1.20;;;14.10;56.10;;;;;;5036742;28;20103;-69
2022/03/31 02:18:35;;;;;;;1.63;1.10;;;14.30;59.70;;;;;;5037816;28;20046;-68
2022/03/31 02:21:01;;;;;;;1.88;1.10;;;14.40;59.80;;;;;;5036302;28;20106;-69
2022/03/31 02:23:28;;;;;;;2.28;1.10;;;14.40;59.80;;;;;;5037608;28;20053;-69
2022/03/31 02:25:55;;;;;;;1.55;1.00;;;14.30;60.00;;;;;;5037663;28;20053;-69
2022/03/31 02:28:23;;;;;;;1.40;1.20;;;;;;;;;;5037994;28;20454;-70
2022/03/31 02:30:49;;;;;;;1.17;1.00;;;14.30;60.00;;;;;;5034425;28;20057;-69
2022/03/31 02:33:18;;;;;;;1.85;1.17;;;14.30;52.00;;;;;;5036674;28;20470;-69
2022/03/31 02:35:45;;;;;;;1.23;0.95;;;;;;;;;;5037732;28;20496;-68
2022/03/31 02:38:12;;;;;;;2.22;1.17;;;14.40;59.30;;;;;;5035697;28;20128;-68
2022/03/31 02:40:39;;;;;;;1.27;0.95;;;;;;;;;;5034146;28;20045;-69
2022/03/31 02:43:06;;;;;;;1.52;0.93;;;14.30;59.70;;;;;;5033218;28;20084;-69
2022/03/31 02:45:33;;;;;;;2.15;1.20;;;;;;;;;;5032448;28;20124;-69
2022/03/31 02:47:59;;;;;;;1.58;1.23;;;14.40;59.70;;;;;;5014417;28;20066;-69
2022/03/31 02:50:27;;;;;;;1.65;1.17;;;14.50;60.10;;;;;;5013160;28;20060;-68
2022/03/31 02:55:39;;;;;;;1.15;0.90;;;;;;;;;;5031146;28;20488;-70
2022/03/31 02:58:06;;;;;;;1.90;1.00;;;14.40;59.70;;;;;;5033249;28;20057;-68
2022/03/31 03:00:33;;;;;;;2.15;1.02;;;14.40;60.00;;;;;;5033858;28;20132;-68
2022/03/31 03:03:01;;;;;;;1.42;1.00;;;;;;;;;;5020345;28;20054;-69
2022/03/31 03:05:29;;;;;;;1.20;1.00;;;14.10;59.70;;;;;;5013264;28;20062;-69
2022/03/31 03:07:56;;;;;;;1.63;1.00;;;14.40;59.60;;;;;;5012856;28;20046;-68
2022/03/31 03:10:23;;;;;;;1.20;0.90;;;;;;;;;;5013909;28;20516;-70
2022/03/31 03:12:50;;;;;;;1.50;1.20;;;14.40;59.90;;;;;;5013275;28;20053;-69
2022/03/31 03:15:17;;;;;;;1.27;0.98;;;14.30;59.90;;;;;;5013097;28;20733;-68
2022/03/31 03:17:44;;;;;;;1.40;1.20;;;14.40;54.40;;;;;;5014172;28;20065;-69
2022/03/31 03:20:13;;;;;;;1.13;1.00;;;14.40;58.80;;;;;;5013650;28;20443;-68
2022/03/31 03:22:42;;;;;;;1.85;1.20;;;14.40;53.20;;;;;;5012900;28;20089;-69
2022/03/31 03:25:09;;;;;;;1.30;1.15;;;14.20;58.60;;;;;;5014099;28;20129;-68
2022/03/31 03:27:36;;;;;;;2.65;1.20;;;;;;;;;;5012607;28;20056;-70
2022/03/31 03:30:03;;;;;;;1.73;1.23;;;14.40;59.80;;;;;;5013298;28;20128;-69
2022/03/31 03:32:30;;;;;;;1.95;1.10;;;;;;;;;;5021536;28;20099;-69
2022/03/31 03:34:56;;;;;;;1.50;1.25;;;14.30;55.70;;;;;;5033604;28;20046;-68
2022/03/31 03:37:23;;;;;;;1.13;1.00;;;14.10;59.40;;;;;;5032489;28;20050;-68
2022/03/31 03:39:51;;;;;;;1.45;1.08;;;14.30;51.90;;;;;;5032162;28;20512;-69
2022/03/31 03:42:19;;;;;;;1.20;1.10;;;;;;;;;;5033192;28;20053;-68
2022/03/31 03:44:46;;;;;;;1.48;1.00;;;14.30;55.00;;;;;;5033510;28;20053;-69
2022/03/31 03:47:13;;;;;;;1.98;1.17;;;14.40;59.50;;;;;;5032117;28;20132;-68
2022/03/31 03:49:40;;;;;;;1.10;1.00;;;14.00;59.60;;;;;;5013759;28;20050;-68
2022/03/31 03:52:07;;;;;;;1.40;1.10;;;14.40;58.10;;;;;;5012989;28;20050;-69
2022/03/31 03:54:34;;;;;;;1.42;1.13;;;;;;;;;;5013001;28;20795;-69
2022/03/31 03:57:03;;;;;;;1.20;0.93;;;14.30;51.80;;;;;;5012346;28;20471;-68
2022/03/31 03:59:29;;;;;;;1.42;1.33;;;14.30;59.40;;;;;;5012008;28;20060;-69
2022/03/31 04:01:56;;;;;;;1.20;1.10;;;14.40;59.50;;;;;;5011848;28;20561;-69
2022/03/31 04:04:23;;;;;;;1.80;1.25;;;14.30;55.70;;;;;;5021320;28;20049;-69
2022/03/31 04:06:49;;;;;;;2.67;1.17;;;14.30;59.70;;;;;;5018776;28;20049;-69
2022/03/31 04:09:16;;;;;;;1.10;1.00;;;14.30;59.40;;;;;;5012121;28;20050;-68
2022/03/31 04:11:43;;;;;;;1.52;1.10;;;;;;;;;;5012683;28;20060;-69
2022/03/31 04:14:11;;;;;;;1.15;1.00;;;14.10;59.30;;;;;;5012083;28;20060;-69
2022/03/31 04:16:38;;;;;;;1.23;1.10;;;14.30;59.40;;;;;;5011921;28;20057;-69
2022/03/31 04:19:05;;;;;;;1.70;1.20;;;14.30;59.80;;;;;;5012025;28;20138;-69
2022/03/31 04:21:32;;;;;;;1.10;1.00;;;14.20;59.30;;;;;;5012487;28;20058;-69
2022/03/31 04:23:58;;;;;;;1.58;1.20;;;14.30;59.80;;;;;;5012931;28;20049;-69
2022/03/31 04:26:25;;;;;;;1.38;1.02;;;;;;;;;;5011695;28;20068;-69
2022/03/31 04:28:52;;;;;;;0.90;0.90;;;14.30;59.50;;;;;;5011538;28;20068;-69
2022/03/31 04:31:20;;;;;;;1.38;1.10;;;14.10;59.30;;;;;;5011400;28;20067;-69
2022/03/31 04:33:47;;;;;;;1.50;1.10;;;14.30;59.70;;;;;;5011464;28;20132;-69
2022/03/31 04:36:14;;;;;;;1.13;1.02;;;;;;;;;;5012594;28;20052;-70
2022/03/31 04:38:41;;;;;;;1.42;1.10;;;14.20;59.40;;;;;;5011140;28;20060;-69
2022/03/31 04:41:08;;;;;;;1.50;1.20;;;;;;;;;;5011218;28;20054;-70
2022/03/31 04:43:34;;;;;;;1.20;1.10;;;14.30;55.20;;;;;;5011195;28;20062;-69
2022/03/31 04:46:01;;;;;;;1.27;1.17;;;14.30;59.50;;;;;;5011309;28;20058;-69
2022/03/31 04:48:30;;;;;;;1.08;0.98;;;14.70;53.60;;;;;;5011152;28;20056;-69
2022/03/31 04:50:57;;;;;;;1.38;1.08;;;14.20;59.70;;;;;;5011087;28;20496;-69
2022/03/31 04:53:23;;;;;;;1.15;1.05;;;14.40;59.80;;;;;;5012399;28;20054;-69
2022/03/31 04:55:50;;;;;;;0.90;0.90;;;14.30;56.10;;;;;;5011340;28;20058;-69
2022/03/31 04:58:17;;;;;;;1.55;1.20;;;14.40;59.80;;;;;;5012193;28;20049;-68
2022/03/31 05:00:44;;;;;;;1.02;0.90;;;14.30;59.40;;;;;;5010915;28;20184;-69
2022/03/31 05:03:11;;;;;;;1.10;1.00;;;14.30;59.30;;;;;;5010969;28;20412;-69
2022/03/31 05:05:39;;;;;;;1.20;1.08;;;14.10;59.20;;;;;;5010905;28;20053;-68
2022/03/31 05:08:06;;;;;;;1.38;1.13;;;14.30;59.70;;;;;;5011910;28;20424;-68
2022/03/31 05:10:32;;;;;;;1.25;1.15;;;14.60;54.60;;;;;;5010768;28;20049;-69
2022/03/31 05:12:59;;;;;;;1.27;1.00;;;14.10;59.20;;;;;;5010969;28;20057;-68
2022/03/31 05:15:26;;;;;;;1.20;1.10;;;14.30;59.60;;;;;;5011159;28;20053;-68
2022/03/31 05:17:53;;;;;;;1.48;1.30;;;;;;;;;;5010744;28;20045;-70
2022/03/31 05:20:21;;;;;;;1.20;1.10;;;14.30;59.60;;;;;;5011917;28;20053;-68
2022/03/31 05:22:49;;;;;;;1.10;1.00;;;14.30;57.80;;;;;;5010799;28;20053;-68
2022/03/31 05:25:16;;;;;;;1.10;1.00;;;14.30;59.70;;;;;;5011730;28;20060;-68
2022/03/31 05:27:43;;;;;;;1.67;1.20;;;;;;;;;;4994160;28;20061;-70
2022/03/31 05:30:11;;;;;;;1.42;1.20;;;14.40;59.70;;;;;;5011897;28;20054;-69
2022/03/31 05:32:38;;;;;;;1.30;1.05;;;14.30;58.60;;;;;;5010973;28;20050;-68
2022/03/31 05:35:06;;;;;;;1.15;1.05;;;14.30;59.30;;;;;;5010571;28;20054;-68
2022/03/31 05:37:33;;;;;;;1.55;1.13;;;14.30;59.20;;;;;;5010393;28;20046;-68
2022/03/31 05:40:04;;;;;;;1.20;1.10;;;14.20;59.10;;;;;;5011366;28;20052;-69
2022/03/31 05:42:30;;;;;;;1.25;1.10;;;14.30;59.30;;;;;;5012039;28;20053;-68
2022/03/31 05:44:57;;;;;;;1.38;1.13;;;;;;;;;;5010703;28;20496;-71
2022/03/31 05:47:24;;;;;;;1.10;1.00;;;13.90;59.30;;;;;;5010708;28;20481;-68
2022/03/31 05:49:51;;;;;;;1.20;1.10;;;14.20;59.40;;;;;;5010409;28;20097;-68
2022/03/31 05:52:18;;;;;;;1.17;1.08;;;13.90;53.30;;;;;;5011512;28;20052;-69
2022/03/31 05:54:44;;;;;;;1.63;1.30;;;14.30;59.20;;;;;;5010683;28;20181;-68
2022/03/31 05:57:12;;;;;;;1.85;1.30;;;14.20;51.50;;;;;;5011800;28;20054;-68
2022/03/31 05:59:39;;;;;;;1.10;1.00;;;14.20;58.90;;;;;;5010018;28;20412;-68
2022/03/31 06:02:06;;;;;;;1.50;1.40;;;14.30;55.70;;;;;;5010232;28;20064;-69
2022/03/31 06:04:33;;;;;;;1.45;1.10;;;14.20;59.60;;;;;;5010642;28;20065;-68
2022/03/31 06:07:00;;;;;;;1.10;1.00;;;;;;;;;;5011257;28;20056;-68
2022/03/31 06:09:27;;;;;;;1.60;1.10;;;13.90;59.10;;;;;;5011489;28;20046;-68
2022/03/31 06:11:54;;;;;;;1.10;1.00;;;;;;;;;;5018022;28;20139;-68
2022/03/31 06:14:22;;;;;;;1.50;1.20;;;14.20;59.60;;;;;;5020698;28;20060;-68
2022/03/31 06:16:49;;;;;;;1.35;1.20;;;14.10;59.30;;;;;;5034980;28;20052;-68
2022/03/31 06:19:16;;;;;;;1.30;1.20;;;;;;;;;;5035052;28;20655;-68
2022/03/31 06:21:44;;;;;;;1.33;1.10;;;14.20;59.20;;;;;;5034661;28;20041;-68
2022/03/31 06:24:11;;;;;;;1.13;1.02;;;14.30;59.40;;;;;;5033558;28;20064;-69
2022/03/31 06:26:37;;;;;;;1.30;1.15;;;14.20;59.10;;;;;;5034723;28;20492;-68
2022/03/31 06:29:05;;;;;;;1.27;1.17;;;14.20;51.40;;;;;;5019305;28;20056;-68
2022/03/31 06:31:34;;;;;;;1.30;1.20;;;14.20;51.40;;;;;;5013527;28;20060;-71
2022/03/31 06:34:01;;;;;;;1.17;1.08;;;;;;;;;;5015016;28;20420;-70
2022/03/31 06:36:30;;;;;;;1.30;1.20;;;;;;;;;;5014841;28;20700;-67
2022/03/31 06:38:57;;;;;;;2.70;2.30;;;14.30;59.00;;;;;;5014992;28;20126;-69
2022/03/31 06:41:24;;;;;;;2.40;1.90;;;14.20;59.30;;;;;;5018765;28;20052;-68
2022/03/31 06:43:51;;;;;;;2.13;1.60;;;;;;;;;;5022207;28;20058;-70
2022/03/31 06:46:18;;;;;;;2.88;1.48;;;14.10;58.90;;;;;;5021700;28;20069;-68
2022/03/31 06:48:47;;;;;;;3.42;1.60;;;14.20;51.20;;;;;;5023016;28;20056;-72
2022/03/31 06:51:14;;;;;;;1.90;1.60;;;14.20;58.90;;;;;;5024825;28;20389;-68
2022/03/31 06:53:41;;;;;;;1.38;1.27;;;;;;;;;;5023426;28;20057;-71
2022/03/31 06:56:09;;;;;;;2.88;1.58;;;14.30;51.20;;;;;;5021398;28;20136;-68
2022/03/31 06:58:40;;;;;;;1.67;1.50;;;14.30;51.20;;;;;;5021748;28;20053;-68
2022/03/31 07:01:07;;;;;;;1.77;1.60;;;;;;;;;;5021953;28;20423;-69
2022/03/31 07:03:34;;;;;;;1.70;1.38;;;14.40;58.90;;;;;;5024012;28;20066;-69
2022/03/31 07:06:03;;;;;;;1.88;1.50;;;14.30;51.10;;;;;;5022197;28;20069;-70
2022/03/31 07:08:30;;;;;;;1.58;1.40;;;14.50;56.50;;;;;;5019450;28;20507;-69
2022/03/31 07:10:57;;;;;;;1.30;1.20;;;14.40;59.10;;;;;;5024519;28;20406;-69
2022/03/31 07:13:24;;;;;;;1.30;1.20;;;;;;;;;;5023199;28;20056;-71
2022/03/31 07:15:50;;;;;;;1.90;1.45;;;14.40;59.00;;;;;;5016932;28;20056;-68
2022/03/31 07:18:17;;;;;;;2.63;1.40;;;14.40;59.00;;;;;;5023551;28;20047;-66
2022/03/31 07:20:44;;;;;;;1.70;1.40;;;14.60;59.00;;;;;;5019074;28;20057;-70
2022/03/31 07:23:12;;;;;;;1.70;1.30;;;14.50;59.20;;;;;;5021146;28;20073;-66
2022/03/31 07:25:40;;;;;;;1.70;1.33;;;14.00;58.50;;;;;;5018498;28;20488;-66
2022/03/31 07:28:07;;;;;;;1.60;1.30;;;14.50;58.80;;;;;;5014069;28;20055;-67
2022/03/31 07:30:34;;;;;;;2.45;1.63;;;;;;;;;;5021677;28;20463;-66
2022/03/31 07:33:03;;;;;;;1.58;1.30;;;14.50;56.60;;;;;;5032217;28;20507;-67
2022/03/31 07:35:30;;;;;;;1.73;1.30;;;14.10;58.80;;;;;;5032837;28;20131;-66
2022/03/31 07:37:57;;;;;;;2.13;1.30;;;14.50;58.70;;;;;;5032619;28;20057;-67
2022/03/31 07:40:26;;;;;;;1.60;1.48;;;14.50;58.70;;;;;;5033069;28;20199;-66
2022/03/31 07:42:53;;;;;;;1.50;1.40;;;14.50;57.20;;;;;;5032270;28;20064;-67
2022/03/31 07:45:20;;;;;;;1.52;1.30;;;14.40;59.00;;;;;;5028913;28;20488;-67
2022/03/31 07:47:47;;;;;;;2.45;1.40;;;14.60;56.40;;;;;;5020380;28;20542;-67
2022/03/31 07:50:15;;;;;;;1.55;1.30;;;14.40;58.90;;;;;;5022079;28;20046;-66
2022/03/31 07:52:42;;;;;;;1.38;1.27;;;14.40;58.60;;;;;;5022805;28;20048;-69
2022/03/31 07:55:11;;;;;;;1.73;1.40;;;14.20;58.70;;;;;;5022619;28;20058;-67
2022/03/31 07:57:39;;;;;;;2.17;1.88;;;13.90;58.20;;;;;;5021532;28;20386;-66
2022/03/31 08:00:07;;;;;;;1.48;1.30;;;14.50;52.60;;;;;;5022210;28;20045;-66
2022/03/31 08:02:33;;;;;;;1.73;1.50;;;14.10;58.60;;;;;;5021677;28;20053;-66
2022/03/31 08:05:00;;;;;;;2.17;1.60;;;14.50;58.80;;;;;;5019460;28;20049;-68
2022/03/31 08:07:27;;;;;;;2.08;1.60;;;;;;;;;;5023216;28;20407;-68
2022/03/31 08:09:54;;;;;;;1.90;1.55;;;14.50;58.70;;;;;;5012701;28;20507;-66
2022/03/31 08:12:21;;;;;;;2.00;1.60;;;14.60;58.50;;;;;;5021476;28;20053;-67
2022/03/31 08:14:49;;;;;;;2.33;1.48;;;14.60;56.20;;;;;;5020749;28;20556;-66
2022/03/31 08:17:17;;;;;;;1.98;1.67;;;14.60;58.80;;;;;;5012802;28;20042;-68
2022/03/31 08:19:44;;;;;;;1.83;1.50;;;14.60;55.90;;;;;;5012028;28;20052;-68
2022/03/31 08:22:11;;;;;;;2.13;1.70;;;14.70;58.80;;;;;;5019575;28;20053;-68
2022/03/31 08:24:38;;;;;;;2.08;1.50;;;;;;;;;;5012744;28;20081;-69
2022/03/31 08:27:05;;;;;;;1.75;1.52;;;14.50;58.40;;;;;;5021778;28;20054;-68
2022/03/31 08:29:33;;;;;;;1.73;1.52;;;14.60;58.20;;;;;;5021077;28;20092;-68
2022/03/31 08:32:01;;;;;;;1.77;1.30;;;14.50;50.70;;;;;;5021760;28;20056;-68
2022/03/31 08:34:28;;;;;;;1.83;1.45;;;14.50;58.30;;;;;;5015793;28;20057;-68
2022/03/31 08:36:55;;;;;;;2.20;1.20;;;14.60;58.60;;;;;;5021949;28;20128;-68
2022/03/31 08:39:22;;;;;;;1.67;1.38;;;14.60;52.70;;;;;;5021020;28;20112;-68
2022/03/31 08:41:48;;;;;;;1.70;1.50;;;14.70;58.60;;;;;;5022997;28;20052;-68
2022/03/31 08:44:15;;;;;;;1.60;1.45;;;14.60;58.60;;;;;;5022062;28;20121;-68
2022/03/31 08:46:42;;;;;;;2.00;1.40;;;14.60;56.10;;;;;;5019895;28;20064;-68
2022/03/31 08:49:11;;;;;;;1.58;1.30;;;14.00;57.90;;;;;;5021287;28;20049;-67
2022/03/31 08:51:38;;;;;;;1.70;1.40;;;;;;;;;;5018386;28;20064;-67
2022/03/31 08:54:08;;;;;;;1.50;1.25;;;14.50;58.50;;;;;;5029682;28;20463;-66
2022/03/31 08:56:35;;;;;;;1.40;1.30;;;14.60;57.50;;;;;;5034950;28;20049;-66
2022/03/31 08:59:01;;;;;;;1.80;1.40;;;14.70;58.60;;;;;;5035884;28;20049;-67
2022/03/31 09:01:30;;;;;;;1.40;1.30;;;;;;;;;;5033215;28;20061;-69
2022/03/31 09:03:57;;;;;;;1.50;1.30;;;14.60;57.30;;;;;;5039072;28;20104;-68
2022/03/31 09:06:28;;;;;;;1.40;1.30;;;14.60;58.20;;;;;;5041218;28;20116;-68
2022/03/31 09:08:56;;;;;;;1.95;1.30;;;14.60;58.20;;;;;;5039758;28;20060;-68
2022/03/31 09:11:29;;;;;;;1.70;1.30;;;14.60;50.60;;;;;;5041143;28;20056;-70
2022/03/31 09:13:56;;;;;;;2.35;1.30;;;14.60;58.50;;;;;;5041824;28;20053;-68
2022/03/31 09:16:30;;;;;;;1.30;1.20;;;14.60;50.60;;;;;;5024425;28;20040;-69
2022/03/31 09:19:00;;;;;;;1.40;1.27;;;14.60;55.00;;;;;;5018887;28;20049;-68
2022/03/31 09:21:28;;;;;;;1.50;1.20;;;14.60;50.50;;;;;;5034997;28;20045;-71
2022/03/31 09:23:56;;;;;;;1.60;1.30;;;;;;;;;;5035019;28;20119;-70
2022/03/31 09:26:27;;;;;;;1.30;1.20;;;14.60;58.00;;;;;;5047216;28;20045;-68
2022/03/31 09:28:54;;;;;;;1.50;1.30;;;14.60;58.00;;;;;;5043048;28;20049;-68
2022/03/31 09:31:23;;;;;;;1.40;1.30;;;14.70;58.10;;;;;;5041223;28;20144;-67
2022/03/31 09:33:55;;;;;;;1.48;1.38;;;14.60;58.10;;;;;;5041922;28;20049;-68
2022/03/31 09:36:22;;;;;;;1.65;1.30;;;14.50;53.40;;;;;;5019413;28;20060;-68
2022/03/31 09:38:53;;;;;;;1.50;1.27;;;14.60;50.50;;;;;;5016603;28;20128;-68
2022/03/31 09:41:22;;;;;;;1.35;1.25;;;14.60;58.30;;;;;;5023846;28;20045;-68
2022/03/31 09:43:49;;;;;;;1.58;1.20;;;14.60;58.30;;;;;;5016686;28;20056;-67
2022/03/31 09:46:20;;;;;;;1.77;1.40;;;14.60;58.00;;;;;;5021697;28;20104;-68
2022/03/31 09:48:48;;;;;;;1.75;1.38;;;;;;;;;;5021157;28;20046;-67
2022/03/31 09:51:16;;;;;;;1.80;1.40;;;;;;;;;;5026572;28;20049;-70
2022/03/31 09:53:42;;;;;;;1.77;1.40;;;14.70;58.10;;;;;;5023399;28;20052;-68
2022/03/31 09:56:10;;;;;;;1.60;1.40;;;14.70;58.40;;;;;;5024935;28;20488;-68
2022/03/31 09:58:39;;;;;;;1.30;1.20;;;14.60;58.10;;;;;;5023744;28;21222;-68
2022/03/31 10:01:05;;;;;;;1.98;1.23;;;14.60;58.30;;;;;;5026313;28;20104;-67
2022/03/31 10:03:33;;;;;;;1.63;1.40;;;14.60;55.80;;;;;;5024863;28;20491;-68
2022/03/31 10:06:00;;;;;;;1.58;1.40;;;14.40;53.50;;;;;;5018999;28;20050;-68
2022/03/31 10:08:27;;;;;;;1.40;1.30;;;14.60;58.00;;;;;;5042827;28;20055;-67
2022/03/31 10:10:54;;;;;;;1.67;1.50;;;;;;;;;;5046675;28;20056;-70
2022/03/31 10:13:25;;;;;;;2.15;1.50;;;14.50;57.90;;;;;;5031669;28;20060;-67
2022/03/31 10:15:55;;;;;;;1.70;1.42;;;14.60;57.90;;;;;;5028267;28;20057;-67
2022/03/31 10:18:22;;;;;;;4.63;1.60;;;;;;;;;;5028270;28;20142;-71
2022/03/31 10:20:56;;;;;;;1.73;1.40;;;14.70;57.80;;;;;;5025643;28;20050;-68
2022/03/31 10:26:07;;;;;;;1.50;1.40;;;14.60;58.10;;;;;;5024862;28;20485;-68
2022/03/31 10:28:35;;;;;;;2.00;1.38;;;14.60;58.00;;;;;;5027755;28;20048;-68
2022/03/31 10:31:03;;;;;;;1.50;1.40;;;14.40;57.90;;;;;;5023709;28;20049;-68
2022/03/31 10:33:31;;;;;;;1.58;1.25;;;14.70;57.80;;;;;;5027045;28;20135;-68
2022/03/31 10:36:09;;;;;;;1.80;1.50;;;14.10;57.70;;;;;;5045301;28;20507;-68
2022/03/31 10:38:36;;;;;;;2.20;1.40;;;14.30;57.10;;;;;;5036563;28;20449;-68
2022/03/31 10:41:04;;;;;;;1.50;1.40;;;14.70;51.40;;;;;;5034562;28;20099;-70
2022/03/31 10:43:32;;;;;;;1.73;1.30;;;14.50;51.10;;;;;;5027868;28;20063;-69
2022/03/31 10:46:04;;;;;;;1.60;1.45;;;14.60;52.20;;;;;;5022842;28;20045;-69
2022/03/31 10:48:31;;;;;;;1.80;1.20;;;14.50;50.30;;;;;;5021086;28;20059;-67
2022/03/31 10:51:03;;;;;;;1.42;1.25;;;14.50;58.20;;;;;;5018638;28;20058;-68
2022/03/31 10:53:29;;;;;;;3.05;1.23;;;14.50;51.40;;;;;;5017909;28;20504;-68
2022/03/31 10:55:57;;;;;;;1.52;1.27;;;;;;;;;;5019532;28;20408;-67
2022/03/31 10:58:26;;;;;;;2.40;1.40;;;14.40;51.70;;;;;;5016725;28;20053;-67
2022/03/31 11:00:53;;;;;;;1.65;1.40;;;14.50;58.00;;;;;;5021377;28;20041;-67
2022/03/31 11:03:21;;;;;;;1.50;1.40;;;14.50;51.50;;;;;;5017760;28;20057;-70
2022/03/31 11:05:48;;;;;;;1.55;1.45;;;14.40;50.30;;;;;;5015679;28;20058;-72
2022/03/31 11:08:17;;;;;;;1.60;1.50;;;14.50;58.30;;;;;;5018077;28;20049;-68
2022/03/31 11:10:45;;;;;;;1.77;1.30;;;14.50;52.30;;;;;;5025478;28;20075;-68
2022/03/31 11:13:13;;;;;;;1.40;1.30;;;14.50;55.50;;;;;;5044070;28;20495;-68
2022/03/31 11:15:40;;;;;;;1.50;1.40;;;;;;;;;;5033646;28;20076;-69
2022/03/31 11:18:08;;;;;;;1.50;1.40;;;14.00;57.70;;;;;;5035868;28;20056;-68
2022/03/31 11:20:36;;;;;;;1.35;1.13;;;14.40;58.00;;;;;;5034915;28;20049;-68
2022/03/31 11:23:06;;;;;;;1.50;1.30;;;14.40;54.90;;;;;;5036964;28;20067;-72
2022/03/31 11:25:32;;;;;;;1.30;1.20;;;14.00;57.60;;;;;;5033911;28;20053;-69
2022/03/31 11:27:59;;;;;;;1.77;1.45;;;;;;;;;;5040306;28;20052;-68
2022/03/31 11:30:30;;;;;;;2.08;1.45;;;14.40;51.20;;;;;;5038140;28;20041;-70
2022/03/31 11:32:57;;;;;;;1.70;1.50;;;14.40;50.30;;;;;;5038561;28;20054;-69
2022/03/31 11:35:28;;;;;;;2.08;1.42;;;14.50;58.30;;;;;;5025616;28;20056;-68
2022/03/31 11:37:59;;;;;;;1.60;1.50;;;14.50;54.00;;;;;;5020296;28;20427;-69
2022/03/31 11:40:27;;;;;;;2.00;1.48;;;;;;;;;;5048403;28;20064;-71
2022/03/31 11:42:55;;;;;;;1.50;1.40;;;14.30;50.30;;;;;;5038708;28;20065;-68
2022/03/31 11:45:27;;;;;;;1.60;1.50;;;14.30;58.30;;;;;;5038814;28;20051;-71
2022/03/31 11:48:01;;;;;;;2.28;1.70;;;14.40;54.10;;;;;;5021333;28;20140;-68
2022/03/31 11:50:28;;;;;;;1.67;1.50;;;;;;;;;;5013980;28;20054;-69
2022/03/31 11:52:57;;;;;;;1.83;1.60;;;14.10;58.00;;;;;;5029915;28;20049;-68
2022/03/31 11:55:23;;;;;;;1.65;1.50;;;14.50;58.20;;;;;;5012345;28;20053;-66
2022/03/31 11:57:54;;;;;;;1.60;1.50;;;14.30;58.40;;;;;;5013556;28;20120;-66
2022/03/31 12:00:22;;;;;;;2.65;2.03;;;14.00;57.90;;;;;;5012258;28;20431;-66
2022/03/31 12:03:00;;;;;;;4.30;2.22;;;14.40;50.20;;;;;;5012113;28;20065;-68
2022/03/31 12:05:26;;;;;;;2.55;2.00;;;14.00;57.80;;;;;;5012067;28;20485;-66
2022/03/31 12:07:53;;;;;;;2.58;2.17;;;;;;;;;;5011916;28;20436;-69
2022/03/31 12:10:22;;;;;;;3.22;2.17;;;14.20;57.90;;;;;;5012609;28;20878;-66
2022/03/31 12:12:49;;;;;;;2.83;2.30;;;14.50;58.20;;;;;;5019277;28;20144;-66
2022/03/31 12:15:21;;;;;;;4.18;2.35;;;14.40;55.50;;;;;;5016149;28;20060;-66
2022/03/31 12:17:59;;;;;;;3.15;2.40;;;14.30;50.40;;;;;;5013314;28;20138;-68
2022/03/31 12:20:26;;;;;;;2.55;2.33;;;14.00;57.10;;;;;;5012903;28;20046;-66
2022/03/31 12:22:53;;;;;;;3.15;2.40;;;14.40;57.50;;;;;;5026355;28;20060;-66
2022/03/31 12:25:29;;;;;;;3.33;2.42;;;14.50;55.50;;;;;;5011387;28;20045;-66
2022/03/31 12:27:58;;;;;;;2.63;2.30;;;14.50;57.60;;;;;;5011736;28;20058;-68
2022/03/31 12:30:26;;;;;;;3.28;2.63;;;14.50;57.80;;;;;;5012570;28;20127;-65
2022/03/31 12:32:53;;;;;;;2.45;2.25;;;14.00;57.20;;;;;;5012519;28;20046;-66
2022/03/31 12:35:21;;;;;;;2.95;2.65;;;14.40;56.80;;;;;;5012662;28;20050;-67
2022/03/31 12:37:50;;;;;;;3.15;2.40;;;;;;;;;;5010614;28;20046;-69
2022/03/31 12:40:17;;;;;;;2.95;2.40;;;14.40;57.70;;;;;;5012335;28;20496;-66
2022/03/31 12:42:56;;;;;;;3.03;2.40;;;14.20;49.70;;;;;;5019522;28;20061;-68
2022/03/31 12:45:24;;;;;;;3.00;2.30;;;14.40;52.70;;;;;;5013072;28;20429;-67
2022/03/31 12:47:51;;;;;;;2.85;2.53;;;14.40;57.70;;;;;;5013165;28;20119;-66
2022/03/31 12:50:18;;;;;;;2.65;2.35;;;14.10;57.30;;;;;;5026660;28;20049;-66
2022/03/31 12:52:55;;;;;;;2.63;2.30;;;14.20;55.80;;;;;;5016334;28;20059;-66
2022/03/31 12:55:28;;;;;;;2.85;2.60;;;14.50;57.50;;;;;;5031361;28;20132;-66
2022/03/31 12:57:57;;;;;;;3.30;2.30;;;14.40;57.00;;;;;;5024249;28;20057;-67
2022/03/31 13:00:24;;;;;;;3.45;2.58;;;14.50;57.80;;;;;;5011357;28;20133;-66
2022/03/31 13:02:51;;;;;;;3.90;2.95;;;;;;;;;;5012170;28;20054;-70
2022/03/31 13:05:21;;;;;;;3.45;2.85;;;14.50;57.80;;;;;;5027527;28;20496;-66
2022/03/31 13:07:48;;;;;;;2.97;2.65;;;14.40;57.80;;;;;;5029700;28;20447;-67
2022/03/31 13:10:15;;;;;;;3.55;2.90;;;;;;;;;;5030416;28;20129;-68
2022/03/31 13:12:42;;;;;;;3.67;2.90;;;14.10;57.30;;;;;;5031717;28;20046;-66
2022/03/31 13:15:12;;;;;;;3.03;2.58;;;14.40;57.80;;;;;;5030171;28;20057;-66
2022/03/31 13:17:39;;;;;;;4.57;2.78;;;14.40;52.20;;;;;;5030606;28;20045;-67
2022/03/31 13:20:07;;;;;;;3.03;2.63;;;14.20;57.70;;;;;;5020524;28;20511;-66
2022/03/31 13:22:34;;;;;;;3.53;2.80;;;13.90;57.30;;;;;;5014382;28;20058;-66